createdAt,value
2022-09-03T00:00:20.115Z,1015.7
2022-09-03T00:05:20.099Z,1015.7
2022-09-03T00:10:20.093Z,1015.6
2022-09-03T00:15:20.109Z,1015.6
2022-09-03T00:20:20.089Z,1015.6
2022-09-03T00:25:20.104Z,1015.7
2022-09-03T00:30:20.094Z,1015.8
2022-09-03T00:35:20.114Z,1015.8
2022-09-03T00:40:20.087Z,1015.8
2022-09-03T00:45:20.103Z,1015.8
2022-09-03T00:50:20.104Z,1015.7
2022-09-03T00:55:20.097Z,1015.6
2022-09-03T01:00:20.086Z,1015.6
2022-09-03T01:05:20.114Z,1015.7
2022-09-03T01:10:20.098Z,1015.7
2022-09-03T01:15:20.101Z,1015.7
2022-09-03T01:20:20.100Z,1015.7
2022-09-03T01:25:20.095Z,1015.7
2022-09-03T01:30:20.096Z,1015.7
2022-09-03T01:35:20.089Z,1015.7
2022-09-03T01:40:20.090Z,1015.7
2022-09-03T01:45:20.101Z,1015.6
2022-09-03T01:50:20.087Z,1015.7
2022-09-03T01:55:20.089Z,1015.7
2022-09-03T02:00:20.093Z,1015.7
2022-09-03T02:05:20.102Z,1015.8
2022-09-03T02:10:20.150Z,1015.7
2022-09-03T02:15:20.100Z,1015.7
2022-09-03T02:20:20.093Z,1015.7
2022-09-03T02:25:20.099Z,1015.7
2022-09-03T02:30:20.096Z,1015.7
2022-09-03T02:35:20.103Z,1015.8
2022-09-03T02:40:20.102Z,1015.8
2022-09-03T02:45:20.102Z,1015.7
2022-09-03T02:50:20.104Z,1015.7
2022-09-03T02:55:20.110Z,1015.7
2022-09-03T03:00:20.102Z,1015.6
2022-09-03T03:05:20.104Z,1015.7
2022-09-03T03:10:20.103Z,1015.6
2022-09-03T03:15:20.107Z,1015.6
2022-09-03T03:20:20.086Z,1015.6
2022-09-03T03:25:20.100Z,1015.6
2022-09-03T03:30:20.104Z,1015.6
2022-09-03T03:35:20.094Z,1015.7
2022-09-03T03:40:20.101Z,1015.6
2022-09-03T03:45:20.099Z,1015.7
2022-09-03T03:50:20.094Z,1015.6
2022-09-03T03:55:20.101Z,1015.6
2022-09-03T04:00:20.096Z,1015.7
2022-09-03T04:05:23.003Z,1015.7
2022-09-03T04:10:20.088Z,1015.8
2022-09-03T04:15:20.094Z,1015.8
2022-09-03T04:20:20.097Z,1015.8
2022-09-03T04:25:20.106Z,1015.8
2022-09-03T04:30:20.093Z,1015.8
2022-09-03T04:35:20.093Z,1015.7
2022-09-03T04:40:20.096Z,1015.7
2022-09-03T04:45:20.100Z,1015.7
2022-09-03T04:50:20.095Z,1015.7
2022-09-03T04:55:20.101Z,1015.7
2022-09-03T05:00:20.095Z,1015.7
2022-09-03T05:05:20.114Z,1015.8
2022-09-03T05:10:20.096Z,1015.8
2022-09-03T05:15:20.101Z,1015.9
2022-09-03T05:20:20.089Z,1015.8
2022-09-03T05:25:20.107Z,1016.1
2022-09-03T05:30:20.092Z,1016.1
2022-09-03T05:35:23.000Z,1015.9
2022-09-03T05:40:20.084Z,1015.9
2022-09-03T05:45:20.165Z,1016
2022-09-03T05:50:20.099Z,1016
2022-09-03T05:55:20.100Z,1016
2022-09-03T06:00:20.096Z,1016.1
2022-09-03T06:05:20.109Z,1016.1
2022-09-03T06:10:23.673Z,1016.2
2022-09-03T06:15:20.101Z,1016.1
2022-09-03T06:20:20.098Z,1016.2
2022-09-03T06:25:20.096Z,1016.1
2022-09-03T06:30:20.097Z,1016
2022-09-03T06:35:20.096Z,1016
2022-09-03T06:40:20.109Z,1016.1
2022-09-03T06:45:20.100Z,1016.1
2022-09-03T06:50:20.100Z,1016.2
2022-09-03T06:55:20.100Z,1016.2
2022-09-03T07:00:20.084Z,1016.1
2022-09-03T07:05:20.091Z,1016.1
2022-09-03T07:10:20.092Z,1016
2022-09-03T07:15:20.092Z,1015.9
2022-09-03T07:20:20.103Z,1016
2022-09-03T07:25:20.102Z,1016
2022-09-03T07:30:20.100Z,1016
2022-09-03T07:35:20.109Z,1016
2022-09-03T07:40:20.086Z,1016
2022-09-03T07:45:20.084Z,1016
2022-09-03T07:50:20.143Z,1016
2022-09-03T07:55:20.092Z,1015.9
2022-09-03T08:00:20.219Z,1015.9
2022-09-03T08:05:20.096Z,1015.9
2022-09-03T08:10:20.156Z,1016
2022-09-03T08:15:20.106Z,1015.9
2022-09-03T08:20:20.174Z,1015.9
2022-09-03T08:25:20.113Z,1015.9
2022-09-03T08:30:20.157Z,1015.9
2022-09-03T08:35:20.102Z,1015.8
2022-09-03T08:40:20.098Z,1015.8
2022-09-03T08:45:20.099Z,1015.7
2022-09-03T08:50:20.131Z,1015.7
2022-09-03T08:55:20.100Z,1015.9
2022-09-03T09:00:20.109Z,1015.9
2022-09-03T09:05:20.099Z,1015.9
2022-09-03T09:10:20.112Z,1015.8
2022-09-03T09:15:20.109Z,1015.8
2022-09-03T09:20:20.098Z,1015.7
2022-09-03T09:25:20.103Z,1015.7
2022-09-03T09:30:20.112Z,1015.7
2022-09-03T09:35:20.118Z,1015.6
2022-09-03T09:40:20.099Z,1015.5
2022-09-03T09:45:20.118Z,1015.5
2022-09-03T09:50:25.214Z,1015.5
2022-09-03T09:55:20.113Z,1015.5
2022-09-03T10:00:20.102Z,1015.3
2022-09-03T10:05:20.106Z,1015.4
2022-09-03T10:10:20.109Z,1015.2
2022-09-03T10:15:20.102Z,1015.2
2022-09-03T10:20:20.100Z,1015
2022-09-03T10:25:20.100Z,1015.1
2022-09-03T10:30:20.094Z,1015
2022-09-03T10:35:20.112Z,1015
2022-09-03T10:40:20.095Z,1015
2022-09-03T10:45:20.099Z,1015
2022-09-03T10:50:20.100Z,1014.9
2022-09-03T10:55:20.101Z,1014.8
2022-09-03T11:00:20.100Z,1014.9
2022-09-03T11:05:20.105Z,1014.8
2022-09-03T11:10:20.097Z,1014.8
2022-09-03T11:15:20.096Z,1014.7
2022-09-03T11:20:20.100Z,1014.7
2022-09-03T11:25:20.101Z,1014.7
2022-09-03T11:30:20.133Z,1014.7
2022-09-03T11:35:20.108Z,1014.6
2022-09-03T11:40:20.096Z,1014.5
2022-09-03T11:45:20.103Z,1014.3
2022-09-03T11:50:20.101Z,1014.2
2022-09-03T11:55:20.107Z,1014.2
2022-09-03T12:00:20.104Z,1014.2
2022-09-03T12:05:20.097Z,1014.1
2022-09-03T12:10:20.107Z,1014.1
2022-09-03T12:15:20.112Z,1014.2
2022-09-03T12:20:20.097Z,1014.2
2022-09-03T12:25:20.125Z,1014.1
2022-09-03T12:30:20.100Z,1014.1
2022-09-03T12:40:20.145Z,1014
2022-09-03T12:45:20.097Z,1014.2
2022-09-03T12:50:20.292Z,1014.3
2022-09-03T12:55:20.105Z,1014.2
2022-09-03T13:00:20.105Z,1014.2
2022-09-03T13:05:20.109Z,1014.2
2022-09-03T13:10:20.095Z,1014.1
2022-09-03T13:15:20.112Z,1014
2022-09-03T13:20:20.098Z,1014.1
2022-09-03T13:25:20.106Z,1014.1
2022-09-03T13:30:20.110Z,1014.2
2022-09-03T13:35:20.115Z,1014.2
2022-09-03T13:40:20.098Z,1014
2022-09-03T13:45:20.106Z,1014
2022-09-03T13:50:20.103Z,1014
2022-09-03T13:55:20.109Z,1013.9
2022-09-03T14:00:20.115Z,1014
2022-09-03T14:05:20.100Z,1014
2022-09-03T14:10:20.101Z,1014
2022-09-03T14:15:20.105Z,1013.9
2022-09-03T14:20:20.113Z,1014
2022-09-03T14:25:20.106Z,1013.9
2022-09-03T14:30:20.095Z,1013.9
2022-09-03T14:35:20.101Z,1013.9
2022-09-03T14:40:20.104Z,1013.8
2022-09-03T14:45:20.111Z,1013.9
2022-09-03T14:50:20.095Z,1013.8
2022-09-03T14:55:20.105Z,1013.8
2022-09-03T15:00:20.386Z,1013.8
2022-09-03T15:05:20.102Z,1013.7
2022-09-03T15:10:20.098Z,1013.7
2022-09-03T15:15:20.101Z,1013.6
2022-09-03T15:20:20.101Z,1013.6
2022-09-03T15:25:20.103Z,1013.6
2022-09-03T15:30:20.100Z,1013.6
2022-09-03T15:35:20.104Z,1013.6
2022-09-03T15:40:20.105Z,1013.6
2022-09-03T15:45:20.136Z,1013.7
2022-09-03T15:50:22.286Z,1013.8
2022-09-03T15:55:20.117Z,1013.9
2022-09-03T16:00:21.450Z,1013.8
2022-09-03T16:05:20.113Z,1013.8
2022-09-03T16:10:24.486Z,1013.9
2022-09-03T16:15:20.114Z,1013.9
2022-09-03T16:20:20.098Z,1013.8
2022-09-03T16:25:20.110Z,1013.8
2022-09-03T16:30:20.109Z,1013.9
2022-09-03T16:35:20.101Z,1014
2022-09-03T16:40:23.228Z,1013.9
2022-09-03T16:45:20.107Z,1014
2022-09-03T16:50:20.107Z,1013.9
2022-09-03T16:55:20.112Z,1014
2022-09-03T17:00:20.107Z,1014
2022-09-03T17:05:20.102Z,1014.2
2022-09-03T17:10:20.109Z,1014.2
2022-09-03T17:15:20.104Z,1014.3
2022-09-03T17:20:20.095Z,1014.2
2022-09-03T17:25:20.110Z,1014.3
2022-09-03T17:30:20.104Z,1014.3
2022-09-03T17:35:20.109Z,1014.3
2022-09-03T17:40:20.109Z,1014.4
2022-09-03T17:45:20.107Z,1014.4
2022-09-03T17:50:20.109Z,1014.4
2022-09-03T17:55:20.103Z,1014.5
2022-09-03T18:00:20.104Z,1014.5
2022-09-03T18:05:20.102Z,1014.6
2022-09-03T18:10:20.121Z,1014.7
2022-09-03T18:15:20.101Z,1014.8
2022-09-03T18:20:20.094Z,1014.8
2022-09-03T18:25:20.101Z,1014.8
2022-09-03T18:30:20.100Z,1014.9
2022-09-03T18:35:20.101Z,1015
2022-09-03T18:40:20.097Z,1015
2022-09-03T18:45:22.600Z,1015.2
2022-09-03T18:50:20.095Z,1015.5
2022-09-03T18:55:20.096Z,1015.4
2022-09-03T19:00:20.085Z,1015.4
2022-09-03T19:05:20.124Z,1015.5
2022-09-03T19:10:20.089Z,1015.5
2022-09-03T19:15:20.095Z,1015.6
2022-09-03T19:20:20.104Z,1015.6
2022-09-03T19:25:20.096Z,1015.6
2022-09-03T19:30:20.106Z,1015.7
2022-09-03T19:35:20.114Z,1015.7
2022-09-03T19:40:20.112Z,1015.7
2022-09-03T19:45:20.107Z,1015.7
2022-09-03T19:50:20.108Z,1015.8
2022-09-03T19:55:20.108Z,1015.8
2022-09-03T20:00:22.350Z,1015.8
2022-09-03T20:05:20.110Z,1015.9
2022-09-03T20:10:20.100Z,1016
2022-09-03T20:15:20.102Z,1016
2022-09-03T20:20:25.015Z,1016
2022-09-03T20:25:20.116Z,1016
2022-09-03T20:30:20.115Z,1016
2022-09-03T20:35:20.111Z,1016.2
2022-09-03T20:40:20.092Z,1016.2
2022-09-03T20:45:20.107Z,1016.3
2022-09-03T20:50:20.095Z,1016.4
2022-09-03T20:55:20.110Z,1016.3
2022-09-03T21:00:20.098Z,1016.3
2022-09-03T21:05:20.114Z,1016.2
2022-09-03T21:10:20.095Z,1016.3
2022-09-03T21:15:20.104Z,1016.4
2022-09-03T21:20:20.096Z,1016.5
2022-09-03T21:25:20.100Z,1016.6
2022-09-03T21:30:20.099Z,1016.5
2022-09-03T21:35:20.111Z,1016.5
2022-09-03T21:40:24.196Z,1016.6
2022-09-03T21:45:20.102Z,1016.6
2022-09-03T21:50:20.103Z,1016.7
2022-09-03T21:55:20.112Z,1016.7
2022-09-03T22:00:20.108Z,1016.8
2022-09-03T22:05:20.113Z,1016.8
2022-09-03T22:10:20.255Z,1016.9
2022-09-03T22:15:20.108Z,1017
2022-09-03T22:20:20.110Z,1017
2022-09-03T22:25:20.099Z,1016.9
2022-09-03T22:30:20.374Z,1017.1
2022-09-03T22:35:20.110Z,1017
2022-09-03T22:40:20.106Z,1016.9
2022-09-03T22:45:20.103Z,1017
2022-09-03T22:50:20.104Z,1017
2022-09-03T22:55:20.107Z,1017.1
2022-09-03T23:00:20.101Z,1017.1
2022-09-03T23:05:20.104Z,1017.1
2022-09-03T23:10:24.349Z,1017.1
2022-09-03T23:15:20.107Z,1017.1
2022-09-03T23:20:20.099Z,1017.1
2022-09-03T23:25:20.106Z,1017.1
2022-09-03T23:30:20.102Z,1017.2
2022-09-03T23:35:20.114Z,1017.3
2022-09-03T23:40:20.099Z,1017.4
2022-09-03T23:45:20.207Z,1017.5
2022-09-03T23:50:20.099Z,1017.5
2022-09-03T23:55:20.098Z,1017.4
